地図

経路データ

SID SEASON NUMBER BASIN SUBBASIN NAME ISO_TIME NATURE LAT LON WMO_WIND WMO_PRES WMO_AGENCY TRACK_TYPE DIST2LAND LANDFALL IFLAG USA_AGENCY USA_ATCF_ID USA_LAT USA_LON USA_RECORD USA_STATUS USA_WIND USA_PRES USA_SSHS USA_R34_NE USA_R34_SE USA_R34_SW USA_R34_NW USA_R50_NE USA_R50_SE USA_R50_SW USA_R50_NW USA_R64_NE USA_R64_SE USA_R64_SW USA_R64_NW USA_POCI USA_ROCI USA_RMW USA_EYE TOKYO_LAT TOKYO_LON TOKYO_GRADE TOKYO_WIND TOKYO_PRES TOKYO_R50_DIR TOKYO_R50_LONG TOKYO_R50_SHORT TOKYO_R30_DIR TOKYO_R30_LONG TOKYO_R30_SHORT TOKYO_LAND CMA_LAT CMA_LON CMA_CAT CMA_WIND CMA_PRES HKO_LAT HKO_LON HKO_CAT HKO_WIND HKO_PRES NEWDELHI_LAT NEWDELHI_LON NEWDELHI_GRADE NEWDELHI_WIND NEWDELHI_PRES NEWDELHI_CI NEWDELHI_DP NEWDELHI_POCI REUNION_LAT REUNION_LON REUNION_TYPE REUNION_WIND REUNION_PRES REUNION_TNUM REUNION_CI REUNION_RMW REUNION_R34_NE REUNION_R34_SE REUNION_R34_SW REUNION_R34_NW REUNION_R50_NE REUNION_R50_SE REUNION_R50_SW REUNION_R50_NW REUNION_R64_NE REUNION_R64_SE REUNION_R64_SW REUNION_R64_NW BOM_LAT BOM_LON BOM_TYPE BOM_WIND BOM_PRES BOM_TNUM BOM_CI BOM_RMW BOM_R34_NE BOM_R34_SE BOM_R34_SW BOM_R34_NW BOM_R50_NE BOM_R50_SE BOM_R50_SW BOM_R50_NW BOM_R64_NE BOM_R64_SE BOM_R64_SW BOM_R64_NW BOM_ROCI BOM_POCI BOM_EYE BOM_POS_METHOD BOM_PRES_METHOD NADI_LAT NADI_LON NADI_CAT NADI_WIND NADI_PRES WELLINGTON_LAT WELLINGTON_LON WELLINGTON_WIND WELLINGTON_PRES DS824_LAT DS824_LON DS824_STAGE DS824_WIND DS824_PRES TD9636_LAT TD9636_LON TD9636_STAGE TD9636_WIND TD9636_PRES TD9635_LAT TD9635_LON TD9635_WIND TD9635_PRES TD9635_ROCI NEUMANN_LAT NEUMANN_LON NEUMANN_CLASS NEUMANN_WIND NEUMANN_PRES MLC_LAT MLC_LON MLC_CLASS MLC_WIND MLC_PRES USA_GUST BOM_GUST BOM_GUST_PER REUNION_GUST REUNION_GUST_PER USA_SEAHGT USA_SEARAD_NE USA_SEARAD_SE USA_SEARAD_SW USA_SEARAD_NW STORM_SPEED STORM_DIR
1948100S16125 1948 27 SI WA NOT_NAMED 1948-04-08 23:00:00 NR -15.9000 124.600 main 0 0 __________O___ -1 -15.9000 124.600 7 7 232
1948100S16125 1948 27 SI WA NOT_NAMED 1948-04-09 00:00:00 TS -15.9772 124.501 main 0 0 O________OP___ jtwc_sh SH221948 -16.0000 124.500 -1 -16.0000 124.500 TC -15.9544 124.502 7 9 269
1948100S16125 1948 27 SI WA NOT_NAMED 1948-04-09 01:00:00 TS -15.9069 124.277 1002 bom main 21 21 P_____O__PP___ SH221948 -16.0577 124.377 -1 -15.0000 123.500 1002 -16.0577 124.377 TC -16.0082 124.403 7 9 271
1948100S16125 1948 27 SI WA NOT_NAMED 1948-04-09 03:00:00 TS -15.9732 124.026 main 30 11 P_____P__PP___ SH221948 -16.1677 124.135 -1 -15.1118 123.346 -16.1677 124.135 TC -16.1121 124.203 7 7 253
1948100S16125 1948 27 SI WA NOT_NAMED 1948-04-09 06:00:00 TS -16.0822 123.687 main 11 11 O_____P__OP___ jtwc_sh SH221948 -16.3000 123.800 -1 -15.2768 123.118 -16.3000 123.800 TC -16.2505 123.888 7 7 256
1948100S16125 1948 27 SI WA NOT_NAMED 1948-04-09 09:00:00 TS -16.1338 123.365 main 30 30 P_____P__PP___ SH221948 -16.3724 123.507 -1 -15.4350 122.896 -16.3724 123.507 TC -16.3556 123.548 7 6 259
1948100S16125 1948 27 SI WA NOT_NAMED 1948-04-09 11:00:00 TS -16.1808 123.168 main 39 35 P_____P__PO___ SH221948 -16.3942 123.309 -1 -15.5346 122.754 -16.3942 123.309 TC -16.4000 123.300 7 6 257
1948100S16125 1948 27 SI WA NOT_NAMED 1948-04-09 12:00:00 TS -16.1989 123.064 main 35 33 O_____P__OP___ jtwc_sh SH221948 -16.4000 123.200 -1 -15.5823 122.686 -16.4000 123.200 TC -16.4131 123.169 7 7 262
1948100S16125 1948 27 SI WA NOT_NAMED 1948-04-09 15:00:00 TS -16.2413 122.710 main 39 39 P_____P__PP___ SH221948 -16.4151 122.792 -1 -15.7149 122.490 -16.4151 122.792 TC -16.4199 122.765 7 7 265
1948100S16125 1948 27 SI WA NOT_NAMED 1948-04-09 18:00:00 TS -16.2547 122.373 main 54 54 O_____P__OP___ jtwc_sh SH221948 -16.4000 122.400 -1 -15.8288 122.313 -16.4000 122.400 TC -16.3898 122.378 7 6 270
1948100S16125 1948 27 SI WA NOT_NAMED 1948-04-09 21:00:00 TS -16.2433 122.103 main 85 85 P_____P__PP___ SH221948 -16.3574 122.097 -1 -15.9201 122.160 -16.3574 122.097 TC -16.3384 122.056 7 5 274
1948100S16125 1948 27 SI WA NOT_NAMED 1948-04-09 23:00:00 TS -16.2263 121.970 main 93 93 P_____P__PO___ SH221948 -16.3193 121.953 -1 -15.9665 122.073 -16.3193 121.953 TC -16.3000 121.900 7 3 283
1948100S16125 1948 27 SI WA NOT_NAMED 1948-04-10 00:00:00 TS -16.2053 121.932 main 101 101 O_____P__OP___ jtwc_sh SH221948 -16.3000 121.900 -1 -15.9849 122.035 -16.3000 121.900 TC -16.2878 121.852 7 3 280
1948100S16125 1948 27 SI WA NOT_NAMED 1948-04-10 01:00:00 TS -16.2103 121.882 1002 bom main 101 101 P_____O__PP___ SH221948 -16.2833 121.855 -1 -16.0000 122.000 1002 -16.2833 121.855 TC -16.2747 121.817 7 2 278
1948100S16125 1948 27 SI WA NOT_NAMED 1948-04-10 03:00:00 TS -16.1916 121.834 main 108 108 P_____P__PP___ SH221948 -16.2499 121.805 -1 -16.0200 121.941 -16.2499 121.805 TC -16.2463 121.784 7 1 313
1948100S16125 1948 27 SI WA NOT_NAMED 1948-04-10 06:00:00 TS -16.1568 121.818 main 108 108 O_____P__OP___ jtwc_sh SH221948 -16.2000 121.800 -1 -16.0297 121.871 -16.2000 121.800 TC -16.1976 121.799 7 1 18
1948100S16125 1948 27 SI WA NOT_NAMED 1948-04-10 09:00:00 TS -16.1161 121.839 main 116 108 P_____P__PP___ SH221948 -16.1500 121.843 -1 -16.0230 121.813 -16.1500 121.843 TC -16.1415 121.858 7 1 28
1948100S16125 1948 27 SI WA NOT_NAMED 1948-04-10 11:00:00 TS -16.0868 121.860 main 108 108 P_____P__PO___ SH221948 -16.1167 121.884 -1 -16.0140 121.774 -16.1167 121.884 TC -16.1000 121.900 7 1 0
1948100S16125 1948 27 SI WA NOT_NAMED 1948-04-10 12:00:00 TS -16.0743 121.863 main 108 108 O_____P__OP___ jtwc_sh SH221948 -16.1000 121.900 -1 -16.0092 121.752 -16.1000 121.900 TC -16.0882 121.899 7 1 328
1948100S16125 1948 27 SI WA NOT_NAMED 1948-04-10 14:10:00 TS -16.0534 121.850 1002 bom main 108 116 P_____O__PP___ SH221948 -16.0756 121.902 -1 -16.0000 121.700 1002 -16.0756 121.902 TC -16.0625 121.897 7 1 0
1948100S16125 1948 27 SI WA NOT_NAMED 1948-04-10 15:00:00 TS -16.0470 121.841 main 123 123 P_____P__PP___ SH221948 -16.0650 121.900 -1 -16.0068 121.666 1002 -16.0650 121.900 TC -16.0513 121.898 7 1 326
1948100S16125 1948 27 SI WA NOT_NAMED 1948-04-10 18:00:00 TS -16.0072 121.812 main 123 123 O_____P__OP___ jtwc_sh SH221948 -16.0000 121.900 -1 -16.0335 121.535 1002 -16.0000 121.900 TC -15.9953 121.912 7 1 345
1948100S16125 1948 27 SI WA NOT_NAMED 1948-04-10 21:00:00 TS -15.9260 121.800 main 131 131 P_____P__PP___ SH221948 -15.8800 121.920 -1 -16.0459 121.408 1002 -15.8800 121.920 TC -15.8982 121.952 7 2 0
1948100S16125 1948 27 SI WA NOT_NAMED 1948-04-10 23:00:00 TS -15.8420 121.817 main 139 139 P_____P__PO___ SH221948 -15.7666 121.964 -1 -16.0347 121.342 1002 -15.7666 121.964 TC -15.8000 122.000 7 3 16
1948100S16125 1948 27 SI WA NOT_NAMED 1948-04-11 00:00:00 TS -15.7887 121.841 main 139 131 O_____P__OP___ jtwc_sh SH221948 -15.7000 122.000 -1 -16.0207 121.317 1002 -15.7000 122.000 TC -15.7340 122.046 7 4 27
1948100S16125 1948 27 SI WA NOT_NAMED 1948-04-11 01:00:00 TS -15.7303 121.877 1002 bom main 139 139 P_____O__PP___ SH221948 -15.6307 122.055 -1 -16.0000 121.300 1002 -15.6307 122.055 TC -15.6598 122.098 7 5 37
1948100S16125 1948 27 SI WA NOT_NAMED 1948-04-11 03:00:00 TS -15.5940 121.996 main 139 139 P_____P__PP___ SH221948 -15.4726 122.193 -1 -15.9395 121.383 -15.4726 122.193 TC -15.4913 122.216 7 6 40
1948100S16125 1948 27 SI WA NOT_NAMED 1948-04-11 06:00:00 TS -15.3516 122.199 main 144 144 O_____P__OP___ jtwc_sh SH221948 -15.2000 122.400 -1 -15.8028 121.600 -15.2000 122.400 TC -15.2035 122.397 7 6 36
1948100S16125 1948 27 SI WA NOT_NAMED 1948-04-11 09:00:00 TS -15.0823 122.377 main 165 165 P_____P__PP___ SH221948 -14.9075 122.545 -1 -15.6156 121.875 -14.9075 122.545 TC -14.8987 122.544 7 6 29
1948100S16125 1948 27 SI WA NOT_NAMED 1948-04-11 11:00:00 TS -14.8927 122.463 main 184 184 P_____P__PO___ SH221948 -14.7026 122.595 -1 -15.4654 122.063 -14.7026 122.595 TC -14.7000 122.600 7 6 19
1948100S16125 1948 27 SI WA NOT_NAMED 1948-04-11 12:00:00 TS -14.7930 122.489 main 195 195 O_____P__OP___ jtwc_sh SH221948 -14.6000 122.600 -1 -15.3834 122.152 -14.6000 122.600 TC -14.5887 122.604 7 6 5
1948100S16125 1948 27 SI WA NOT_NAMED 1948-04-11 15:00:00 TS -14.4792 122.502 main 227 227 P_____P__PP___ SH221948 -14.2775 122.537 -1 -15.1119 122.372 -14.2775 122.537 TC -14.2501 122.561 7 6 354
1948100S16125 1948 27 SI WA NOT_NAMED 1948-04-11 18:00:00 TS -14.1894 122.434 main 262 262 O_____P__OP___ jtwc_sh SH221948 -14.0000 122.400 -1 -14.8070 122.478 -14.0000 122.400 TC -13.9507 122.456 7 6 341
1948100S16125 1948 27 SI WA NOT_NAMED 1948-04-11 21:00:00 TS -13.9399 122.310 main 295 295 P_____P__PP___ SH221948 -13.7675 122.257 -1 -14.4747 122.414 -13.7675 122.257 TC -13.7498 122.310 7 5 328
1948100S16125 1948 27 SI WA NOT_NAMED 1948-04-11 22:30:00 TS -13.8539 122.221 1000 bom main 300 300 P_____O__PP___ SH221948 -13.7053 122.179 -1 -14.3000 122.300 1000 -13.7053 122.179 TC -13.7049 122.228 7 5 313
1948100S16125 1948 27 SI WA NOT_NAMED 1948-04-11 23:00:00 TS -13.8327 122.188 main 310 310 P_____P__PO___ SH221948 -13.6965 122.153 -1 -14.2380 122.246 1000 -13.6965 122.153 TC -13.7000 122.200 7 4 296
1948100S16125 1948 27 SI WA NOT_NAMED 1948-04-12 00:00:00 TS -13.8080 122.120 main 314 314 O_____P__OP___ jtwc_sh SH221948 -13.7000 122.100 -1 -14.1145 122.127 1000 -13.7000 122.100 TC -13.7175 122.152 7 4 282
1948100S16125 1948 27 SI WA NOT_NAMED 1948-04-12 01:00:00 TS -13.8063 122.052 1000 bom main 314 310 P_____O__PP___ SH221948 -13.7350 122.053 -1 -14.0000 122.000 1000 4 -13.7350 122.053 TC -13.7551 122.101 7 4 253
1948100S16125 1948 27 SI WA NOT_NAMED 1948-04-12 03:00:00 TS -13.8697 121.917 main 310 297 P_____P__PP___ SH221948 -13.8825 121.958 -1 -13.8332 121.763 -13.8825 121.958 TC -13.8808 121.991 7 5 232
1948100S16125 1948 27 SI WA NOT_NAMED 1948-04-12 06:00:00 TS -14.0693 121.705 main 297 288 O_____P__OP___ jtwc_sh SH221948 -14.2000 121.800 -1 -13.7182 121.410 -14.2000 121.800 TC -14.1590 121.812 7 6 224
1948100S16125 1948 27 SI WA NOT_NAMED 1948-04-12 09:00:00 TS -14.3109 121.470 main 288 282 P_____P__PP___ SH221948 -14.5075 121.600 -1 -13.7418 121.056 -14.5075 121.600 TC -14.4866 121.625 7 7 223
1948100S16125 1948 27 SI WA NOT_NAMED 1948-04-12 11:00:00 TS -14.4847 121.311 main 282 280 P_____P__PO___ SH221948 -14.7088 121.464 -1 -13.8212 120.818 -14.7088 121.464 TC -14.7000 121.500 7 7 222
1948100S16125 1948 27 SI WA NOT_NAMED 1948-04-12 12:00:00 TS -14.5641 121.236 main 280 270 O_____P__OP___ jtwc_sh SH221948 -14.8000 121.400 -1 -13.8770 120.698 -14.8000 121.400 TC -14.7795 121.447 7 6 222
1948100S16125 1948 27 SI WA NOT_NAMED 1948-04-12 15:00:00 TS -14.7813 121.030 main 278 270 P_____P__PP___ SH221948 -15.0075 121.250 -1 -14.0971 120.332 -15.0075 121.250 TC -15.0132 121.288 7 6 222
1948100S16125 1948 27 SI WA NOT_NAMED 1948-04-12 18:00:00 TS -15.0037 120.819 main 278 270 O_____P__OP___ jtwc_sh SH221948 -15.2000 121.100 -1 -14.3754 119.953 -15.2000 121.100 TC -15.2394 121.123 7 6 222
1948100S16125 1948 27 SI WA NOT_NAMED 1948-04-12 21:00:00 TS -15.2608 120.582 main 270 270 P_____P__PP___ SH221948 -15.4500 120.915 -1 -14.6850 119.558 -15.4500 120.915 TC -15.4582 120.939 7 7 223
1948100S16125 1948 27 SI WA NOT_NAMED 1948-04-12 23:00:00 TS -15.4337 120.408 main 278 270 P_____P__PO___ SH221948 -15.6197 120.775 -1 -14.8955 119.284 -15.6197 120.775 TC -15.6000 120.800 7 8 234
1948100S16125 1948 27 SI WA NOT_NAMED 1948-04-13 00:00:00 TS -15.4924 120.246 main 286 286 O_____P__OP___ jtwc_sh SH221948 -15.7000 120.700 -1 -14.9990 119.143 -15.7000 120.700 TC -15.6688 120.725 7 10 250
1948100S16125 1948 27 SI WA NOT_NAMED 1948-04-13 01:00:00 TS -15.5478 120.081 1000 bom main 295 288 P_____O__PP___ SH221948 -15.7724 120.625 -1 -15.1000 119.000 1000 -15.7724 120.625 TC -15.7364 120.647 7 9 247
1948100S16125 1948 27 SI WA NOT_NAMED 1948-04-13 03:00:00 TS -15.6745 119.806 main 309 309 P_____P__PP___ SH221948 -15.9075 120.465 -1 -15.2921 118.706 -15.9075 120.465 TC -15.8690 120.481 7 9 244
1948100S16125 1948 27 SI WA NOT_NAMED 1948-04-13 06:00:00 TS -15.8656 119.397 main 337 337 O_____P__OP___ jtwc_sh SH221948 -16.1000 120.200 -1 -15.5565 118.245 -16.1000 120.200 TC -16.0652 120.208 7 8 242
1948100S16125 1948 27 SI WA NOT_NAMED 1948-04-13 09:00:00 TS -16.0734 119.030 main 366 366 P_____P__PP___ SH221948 -16.3000 119.915 -1 -15.7958 117.766 -16.3000 119.915 TC -16.2635 119.911 7 8 240
1948100S16125 1948 27 SI WA NOT_NAMED 1948-04-13 11:00:00 TS -16.2103 118.775 main 382 382 P_____P__PO___ SH221948 -16.4333 119.708 -1 -15.9431 117.437 -16.4333 119.708 TC -16.4000 119.700 7 10 249
1948100S16125 1948 27 SI WA NOT_NAMED 1948-04-13 12:00:00 TS -16.2539 118.537 main 409 409 O_____P__OP___ jtwc_sh SH221948 -16.5000 119.600 -1 -16.0135 117.270 -16.5000 119.600 TC -16.4702 119.591 7 12 254
1948100S16125 1948 27 SI WA NOT_NAMED 1948-04-13 15:00:00 TS -16.4275 117.985 main 429 422 P_____P__PP___ SH221948 -16.7001 119.258 -1 -16.2135 116.760 -16.7001 119.258 TC -16.6880 119.254 7 13 256
1948100S16125 1948 27 SI WA NOT_NAMED 1948-04-13 18:00:00 TS -16.5667 117.245 main 435 435 O_____P__OP___ jtwc_sh SH221948 -16.9000 118.900 -1 -16.3995 116.239 -16.9000 118.900 TC -16.9141 118.903 7 16 261
1948100S16125 1948 27 SI WA NOT_NAMED 1948-04-13 21:00:00 TS -16.6781 116.333 main 438 429 ______P___P___ SH221948 -1 -16.5752 115.711 TC -17.1450 118.543 7 16 261
1948100S16125 1948 27 SI WA NOT_NAMED 1948-04-13 23:00:00 TS -16.7725 115.849 main 435 435 ______P___O___ SH221948 -1 -16.6885 115.356 TC -17.3000 118.300 7 22 267
1948100S16125 1948 27 SI WA NOT_NAMED 1948-04-14 00:00:00 TS -16.7296 115.185 main 464 461 ______P_______ -1 -16.7444 115.178 7 24 268
1948100S16125 1948 27 SI WA NOT_NAMED 1948-04-14 01:00:00 NR -16.8000 115.000 1002 bom main 461 ______O_______ -1 -16.8000 115.000 1002 7 11 248

IBTrACS Databaseについて

本データベースは、米国NOAAが公開する1842年以降の世界の熱帯低気圧のベストトラックデータアーカイブInternational Best Track Archive for Climate Stewardship (IBTrACS)を、ウェブで閲覧しやすい形式に変換したものです。

最終更新日:2021-11-26